Enter the Airport ICAO Code

Search by Airport or City

Current Weather

MDPP | Gregorio Luperón International Airport

San Felipe de Puerto Plata, Dominican Republic

Last Update 1 Minute Ago

Sky with Few Clouds

Temperature of 33 ºC

Light to Moderate Winds from SouthEast

Temperature

33 ºC

Dew Point Temperature

21 ºC

Relative Humidity

49.6 %

Wind Direction

SouthEast (120º, Without Significant Variations)

Wind Velocity

9 km/h (05 kt)

Gusts

None

Visibility

Greater than 10 Kilometers

Sea Level Pressure

1016 hPa (Hectopascals)

Layers of Clouds

5% to 30% of Sky Covered from 762 mts (2500 ft) Above Ground Level.

METAR MDPP 201700Z 12005KT 9999 FEW025 33/21 Q1016

Weather Forecast

MDPP | Gregorio Luperón International Airport

San Felipe de Puerto Plata, Dominican Republic

Forecast valid for the next 25 Hours

In 1 hour it is expected the begining of:

Sky with Few Clouds

Moderate Winds from SouthEast

Maximum Temperature

No Data

Minimum Temperature

No Data

TAF MDPP 201600Z 2018/2118 12010KT 9999 FEW022